Time;durP1;ratioP1;P1;durP2;ratioP2;P2;SDS_P1;SDS_P2;PMS_P1;PMS_P2;Temp;Humidity;BMP_temperature;BMP_pressure;BME280_temperature;BME280_humidity;BME280_pressure;Samples;Min_cycle;Max_cycle;Signal;HPM_P1;HPM_P2
2023/04/10 00:00:32;;;;;;;0.00;0.00;;;7.80;92.30;;;;;;5092300;28;20180;-59
2023/04/10 00:03:00;;;;;;;0.08;0.08;;;7.70;92.50;;;;;;5092112;28;20206;-60
2023/04/10 00:05:26;;;;;;;0.05;0.05;;;7.70;92.60;;;;;;5091973;28;20192;-60
2023/04/10 00:07:52;;;;;;;0.00;0.00;;;7.70;92.80;;;;;;5091361;28;20527;-60
2023/04/10 00:10:18;;;;;;;0.03;0.03;;;7.60;92.80;;;;;;5092105;28;20175;-60
2023/04/10 00:12:43;;;;;;;0.10;0.10;;;7.60;93.00;;;;;;5091950;28;20180;-60
2023/04/10 00:15:09;;;;;;;0.00;0.00;;;7.60;93.20;;;;;;5091555;28;20175;-60
2023/04/10 00:17:35;;;;;;;0.00;0.00;;;7.60;93.30;;;;;;5091637;28;20234;-60
2023/04/10 00:20:01;;;;;;;0.13;0.13;;;7.60;93.50;;;;;;5091983;28;21024;-60
2023/04/10 00:22:26;;;;;;;0.10;0.10;;;7.50;93.60;;;;;;5091766;28;20168;-60
2023/04/10 00:24:52;;;;;;;0.10;0.10;;;7.50;93.70;;;;;;5091956;28;20544;-60
2023/04/10 00:27:17;;;;;;;0.15;0.15;;;7.50;93.80;;;;;;5091539;28;20227;-60
2023/04/10 00:29:43;;;;;;;0.10;0.10;;;7.50;94.00;;;;;;5091708;28;20274;-60
2023/04/10 00:32:09;;;;;;;0.00;0.00;;;7.50;94.10;;;;;;5077010;28;20214;-60
2023/04/10 00:34:34;;;;;;;0.38;0.38;;;7.50;94.20;;;;;;5071274;28;20218;-60
2023/04/10 00:37:00;;;;;;;0.00;0.00;;;7.50;94.30;;;;;;5071577;28;20168;-60
2023/04/10 00:39:26;;;;;;;0.00;0.00;;;7.40;94.40;;;;;;5071188;28;20211;-60
2023/04/10 00:41:51;;;;;;;0.00;0.00;;;7.40;94.30;;;;;;5071227;28;20173;-60
2023/04/10 00:44:17;;;;;;;0.00;0.00;;;7.50;94.50;;;;;;5071196;28;20212;-60
2023/04/10 00:46:42;;;;;;;0.00;0.00;;;7.40;94.60;;;;;;5089518;28;20238;-60
2023/04/10 00:49:08;;;;;;;0.00;0.00;;;7.50;94.70;;;;;;5091505;28;20172;-60
2023/04/10 00:51:35;;;;;;;0.15;0.15;;;7.40;94.70;;;;;;5091074;28;20241;-60
2023/04/10 00:54:01;;;;;;;0.03;0.03;;;7.40;94.80;;;;;;5091275;28;20778;-60
2023/04/10 00:56:29;;;;;;;0.10;0.10;;;7.40;94.90;;;;;;5091010;28;20661;-60
2023/04/10 00:58:54;;;;;;;0.00;0.00;;;7.40;95.00;;;;;;5090545;28;20179;-61
2023/04/10 01:01:20;;;;;;;0.00;0.00;;;7.30;95.00;;;;;;5089865;28;20553;-60
2023/04/10 01:03:46;;;;;;;0.13;0.13;;;7.30;95.10;;;;;;5090934;28;20224;-60
2023/04/10 01:06:36;;;;;;;0.00;0.00;;;7.30;95.20;;;;;;5091062;28;20180;-60
2023/04/10 01:09:10;;;;;;;0.00;0.00;;;7.30;95.20;;;;;;5090280;28;20194;-60
2023/04/10 01:11:54;;;;;;;0.00;0.00;;;7.40;95.30;;;;;;5080960;28;20172;-60
2023/04/10 01:14:26;;;;;;;0.08;0.08;;;7.40;95.30;;;;;;5090949;28;20176;-61
2023/04/10 01:17:12;;;;;;;0.10;0.10;;;7.40;95.30;;;;;;5085578;28;20627;-60
2023/04/10 01:20:00;;;;;;;0.28;0.28;;;7.40;95.30;;;;;;5081008;28;20186;-60
2023/04/10 01:22:44;;;;;;;0.00;0.00;;;7.30;95.40;;;;;;5090837;28;20176;-60
2023/04/10 01:25:28;;;;;;;0.00;0.00;;;7.30;95.60;;;;;;5071074;28;20188;-60
2023/04/10 01:28:03;;;;;;;0.10;0.10;;;7.20;95.90;;;;;;5075285;28;20319;-60
2023/04/10 01:30:31;;;;;;;0.00;0.00;;;7.20;96.20;;;;;;5081582;28;20179;-60
2023/04/10 01:33:00;;;;;;;0.00;0.00;;;7.20;96.40;;;;;;5097820;28;20212;-60
2023/04/10 01:35:29;;;;;;;0.20;0.20;;;7.10;96.80;;;;;;5097206;28;20172;-59
2023/04/10 01:37:56;;;;;;;0.00;0.00;;;7.10;97.00;;;;;;5097688;28;20179;-60
2023/04/10 01:40:25;;;;;;;0.20;0.20;;;7.00;97.20;;;;;;5097380;28;20179;-60
2023/04/10 01:42:54;;;;;;;0.03;0.03;;;6.90;97.40;;;;;;5097595;28;20577;-60
2023/04/10 01:45:26;;;;;;;0.00;0.00;;;6.80;97.70;;;;;;5097707;28;20171;-60
2023/04/10 01:47:52;;;;;;;0.20;0.15;;;6.70;97.90;;;;;;5097593;28;20172;-60
2023/04/10 01:50:23;;;;;;;0.00;0.00;;;6.70;98.20;;;;;;5097605;28;20195;-60
2023/04/10 01:52:52;;;;;;;0.20;0.20;;;6.60;98.50;;;;;;5097468;28;20176;-60
2023/04/10 01:55:19;;;;;;;0.50;0.50;;;6.60;98.80;;;;;;5097465;28;20265;-60
2023/04/10 01:57:47;;;;;;;0.00;0.00;;;6.60;98.90;;;;;;5097606;28;20168;-60
2023/04/10 02:00:14;;;;;;;0.17;0.17;;;6.50;99.00;;;;;;5097597;28;20176;-60
2023/04/10 02:02:41;;;;;;;0.00;0.00;;;6.50;99.30;;;;;;5097214;28;20210;-60
2023/04/10 02:05:09;;;;;;;0.20;0.20;;;6.40;99.50;;;;;;5097564;28;20172;-60
2023/04/10 02:08:07;;;;;;;0.00;0.00;;;6.40;99.70;;;;;;5097491;28;20168;-59
2023/04/10 02:10:50;;;;;;;0.00;0.00;;;6.40;99.90;;;;;;5077393;28;20263;-60
2023/04/10 02:13:19;;;;;;;0.20;0.20;;;6.40;99.90;;;;;;5097383;28;20531;-60
2023/04/10 02:15:46;;;;;;;0.20;0.20;;;6.30;99.90;;;;;;5097445;28;20179;-59
2023/04/10 02:18:16;;;;;;;0.10;0.10;;;6.30;99.90;;;;;;5097225;28;20180;-60
2023/04/10 02:20:42;;;;;;;0.00;0.00;;;6.30;99.90;;;;;;5096615;28;20180;-60
2023/04/10 02:23:08;;;;;;;0.20;0.20;;;6.30;99.90;;;;;;5096856;28;20290;-59
2023/04/10 02:25:35;;;;;;;0.32;0.32;;;6.20;99.90;;;;;;5096631;28;20259;-59
2023/04/10 02:28:04;;;;;;;0.00;0.00;;;6.20;99.90;;;;;;5097261;28;20220;-59
2023/04/10 02:30:30;;;;;;;0.30;0.25;;;6.20;99.90;;;;;;5096615;28;20229;-59
2023/04/10 02:32:55;;;;;;;0.00;0.00;;;6.20;99.90;;;;;;5096516;28;20179;-59
2023/04/10 02:35:21;;;;;;;0.10;0.10;;;6.20;99.90;;;;;;5096471;28;20273;-59
2023/04/10 02:37:46;;;;;;;0.00;0.00;;;6.10;99.90;;;;;;5097018;28;20176;-59
2023/04/10 02:40:12;;;;;;;0.00;0.00;;;6.10;99.90;;;;;;5093089;28;20172;-59
2023/04/10 02:42:37;;;;;;;0.00;0.00;;;6.10;99.90;;;;;;5093755;28;20826;-60
2023/04/10 02:45:03;;;;;;;0.00;0.00;;;6.00;99.90;;;;;;5093681;28;20758;-59
2023/04/10 02:47:29;;;;;;;0.00;0.00;;;6.00;99.90;;;;;;5093269;28;20229;-59
2023/04/10 02:49:54;;;;;;;0.08;0.08;;;6.00;99.90;;;;;;5093338;28;20531;-59
2023/04/10 02:52:20;;;;;;;0.00;0.00;;;6.00;99.90;;;;;;5093267;28;20172;-59
2023/04/10 02:54:46;;;;;;;0.10;0.10;;;6.00;99.90;;;;;;5093258;28;20184;-59
2023/04/10 02:57:11;;;;;;;0.00;0.00;;;5.90;99.90;;;;;;5093508;28;20187;-59
2023/04/10 02:59:37;;;;;;;0.00;0.00;;;5.90;99.90;;;;;;5093450;28;20172;-59
2023/04/10 03:02:02;;;;;;;0.00;0.00;;;5.80;99.90;;;;;;5093433;28;20168;-59
2023/04/10 03:04:31;;;;;;;0.00;0.00;;;5.80;99.90;;;;;;5093350;28;20216;-59
2023/04/10 03:06:56;;;;;;;0.10;0.10;;;5.80;99.90;;;;;;5093499;28;20176;-59
2023/04/10 03:09:22;;;;;;;0.15;0.15;;;5.70;99.90;;;;;;5093181;28;20203;-59
2023/04/10 03:11:47;;;;;;;0.28;0.28;;;5.70;99.90;;;;;;5093199;28;20173;-59
2023/04/10 03:14:13;;;;;;;0.00;0.00;;;5.70;99.90;;;;;;5093164;28;20180;-60
2023/04/10 03:16:39;;;;;;;0.00;0.00;;;5.70;99.90;;;;;;5093191;28;20630;-59
2023/04/10 03:19:04;;;;;;;0.10;0.10;;;5.70;99.90;;;;;;5093163;28;20210;-59
2023/04/10 03:21:30;;;;;;;0.00;0.00;;;5.70;99.90;;;;;;5093102;28;20182;-59
2023/04/10 03:23:56;;;;;;;0.00;0.00;;;5.70;99.90;;;;;;5093077;28;20243;-60
2023/04/10 03:26:22;;;;;;;0.00;0.00;;;5.70;99.90;;;;;;5092510;28;20184;-59
2023/04/10 03:28:48;;;;;;;0.00;0.00;;;5.70;99.90;;;;;;5092654;28;20180;-59
2023/04/10 03:31:14;;;;;;;0.10;0.10;;;5.70;99.90;;;;;;5082216;28;20191;-59
2023/04/10 03:33:39;;;;;;;0.00;0.00;;;5.60;99.90;;;;;;5072331;28;20188;-59
2023/04/10 03:36:05;;;;;;;0.45;0.30;;;5.60;99.90;;;;;;5072531;28;20188;-60
2023/04/10 03:38:31;;;;;;;0.00;0.00;;;5.60;99.90;;;;;;5071453;28;20192;-59
2023/04/10 03:40:57;;;;;;;0.00;0.00;;;5.50;99.90;;;;;;5072239;28;20169;-59
2023/04/10 03:43:23;;;;;;;0.00;0.00;;;5.50;99.90;;;;;;5071968;28;20574;-59
2023/04/10 03:45:49;;;;;;;0.00;0.00;;;5.50;99.90;;;;;;5083212;28;20191;-59
2023/04/10 03:48:15;;;;;;;0.10;0.10;;;5.50;99.90;;;;;;5092509;28;21284;-60
2023/04/10 03:50:41;;;;;;;0.00;0.00;;;5.50;99.90;;;;;;5092499;28;20641;-59
2023/04/10 03:53:06;;;;;;;1.65;0.20;;;5.50;99.90;;;;;;5091457;28;20207;-59
2023/04/10 03:55:32;;;;;;;0.00;0.00;;;5.40;99.90;;;;;;5092583;28;20172;-60
2023/04/10 03:57:57;;;;;;;0.10;0.10;;;5.40;99.90;;;;;;5092367;28;20168;-60
2023/04/10 04:00:23;;;;;;;0.00;0.00;;;5.40;99.90;;;;;;5092053;28;20251;-60
2023/04/10 04:02:49;;;;;;;0.10;0.10;;;5.50;99.90;;;;;;5092231;28;20620;-60
2023/04/10 04:05:15;;;;;;;0.00;0.00;;;5.50;99.90;;;;;;5092340;28;20275;-60
2023/04/10 04:07:41;;;;;;;0.03;0.03;;;5.50;99.90;;;;;;5092048;28;20211;-59
2023/04/10 04:10:06;;;;;;;0.00;0.00;;;5.50;99.90;;;;;;5091623;28;20211;-59
2023/04/10 04:12:32;;;;;;;0.00;0.00;;;5.50;99.90;;;;;;5091806;28;20176;-60
2023/04/10 04:14:57;;;;;;;0.00;0.00;;;5.50;99.90;;;;;;5091735;28;20176;-60
2023/04/10 04:17:23;;;;;;;0.10;0.10;;;5.40;99.90;;;;;;5091622;28;20234;-60
2023/04/10 04:19:48;;;;;;;0.00;0.00;;;5.40;99.90;;;;;;5092002;28;20274;-60
2023/04/10 04:22:14;;;;;;;0.00;0.00;;;5.50;99.90;;;;;;5091732;28;20250;-60
2023/04/10 04:24:40;;;;;;;0.10;0.10;;;5.50;99.90;;;;;;5091980;28;20207;-60
2023/04/10 04:27:06;;;;;;;0.13;0.13;;;5.50;99.90;;;;;;5091698;28;20219;-61
2023/04/10 04:29:31;;;;;;;0.00;0.00;;;5.50;99.90;;;;;;5091946;28;20616;-59
2023/04/10 04:31:57;;;;;;;0.00;0.00;;;5.50;99.90;;;;;;5079380;28;20259;-59
2023/04/10 04:34:22;;;;;;;0.00;0.00;;;5.50;99.90;;;;;;5091673;28;20526;-59
2023/04/10 04:36:48;;;;;;;0.05;0.05;;;5.50;99.90;;;;;;5091411;28;20187;-59
2023/04/10 04:39:14;;;;;;;0.10;0.10;;;5.50;99.90;;;;;;5065885;28;20180;-59
2023/04/10 04:41:40;;;;;;;0.00;0.00;;;5.40;99.90;;;;;;5087628;28;20196;-59
2023/04/10 04:44:05;;;;;;;0.00;0.00;;;5.40;99.90;;;;;;5090945;28;20211;-59
2023/04/10 04:46:31;;;;;;;0.03;0.03;;;5.40;99.90;;;;;;5091071;28;20285;-59
2023/04/10 04:48:57;;;;;;;0.00;0.00;;;5.40;99.90;;;;;;5091571;28;20172;-59
2023/04/10 04:51:22;;;;;;;0.00;0.00;;;5.40;99.90;;;;;;5091164;28;20176;-59
2023/04/10 04:53:48;;;;;;;0.00;0.00;;;5.40;99.90;;;;;;5091316;28;20688;-59
2023/04/10 04:56:13;;;;;;;0.00;0.00;;;5.40;99.90;;;;;;5091350;28;20657;-60
2023/04/10 04:58:39;;;;;;;0.00;0.00;;;5.40;99.90;;;;;;5091183;28;20168;-60
2023/04/10 05:01:05;;;;;;;0.00;0.00;;;5.50;99.90;;;;;;5090929;28;20180;-60
2023/04/10 05:03:31;;;;;;;0.00;0.00;;;5.50;99.90;;;;;;5090253;28;20280;-60
2023/04/10 05:05:57;;;;;;;0.00;0.00;;;5.50;99.90;;;;;;5090971;28;20524;-60
2023/04/10 05:08:23;;;;;;;0.00;0.00;;;5.60;99.90;;;;;;5090974;28;20176;-60
2023/04/10 05:10:48;;;;;;;0.00;0.00;;;5.60;99.90;;;;;;5091034;28;20233;-60
2023/04/10 05:13:16;;;;;;;0.35;0.35;;;5.70;99.90;;;;;;5090749;28;20172;-59
2023/04/10 05:15:42;;;;;;;0.10;0.10;;;5.80;99.90;;;;;;5090565;28;20180;-59
2023/04/10 05:18:07;;;;;;;0.00;0.00;;;5.80;99.90;;;;;;5090299;28;20183;-59
2023/04/10 05:20:34;;;;;;;0.10;0.10;;;5.90;99.90;;;;;;5090382;28;20221;-59
2023/04/10 05:23:00;;;;;;;0.00;0.00;;;6.00;99.90;;;;;;5090599;28;20218;-59
2023/04/10 05:25:25;;;;;;;0.00;0.00;;;6.10;99.90;;;;;;5090771;28;20184;-59
2023/04/10 05:27:51;;;;;;;0.00;0.00;;;6.20;99.90;;;;;;5072529;28;20222;-59
2023/04/10 05:30:17;;;;;;;0.00;0.00;;;6.30;99.90;;;;;;5072623;28;20212;-60
2023/04/10 05:32:42;;;;;;;0.00;0.00;;;6.40;99.90;;;;;;5090242;28;20270;-59
2023/04/10 05:35:08;;;;;;;0.13;0.13;;;6.60;99.90;;;;;;5090375;28;20263;-59
2023/04/10 05:37:33;;;;;;;0.03;0.03;;;6.70;99.90;;;;;;5090223;28;20180;-59
2023/04/10 05:39:59;;;;;;;0.00;0.00;;;6.80;99.90;;;;;;5090414;28;20643;-59
2023/04/10 05:42:24;;;;;;;0.03;0.03;;;6.90;99.90;;;;;;5090524;28;20172;-59
2023/04/10 05:44:51;;;;;;;0.00;0.00;;;7.00;99.90;;;;;;5090598;28;20567;-59
2023/04/10 05:47:17;;;;;;;0.00;0.00;;;7.10;99.90;;;;;;5090232;28;20229;-59
2023/04/10 05:49:42;;;;;;;0.00;0.00;;;7.30;99.90;;;;;;5090159;28;20183;-59
2023/04/10 05:52:08;;;;;;;0.00;0.00;;;7.40;99.90;;;;;;5090780;28;20176;-60
2023/04/10 05:54:34;;;;;;;0.00;0.00;;;7.50;99.90;;;;;;5090406;28;20179;-59
2023/04/10 05:57:00;;;;;;;0.00;0.00;;;7.70;99.90;;;;;;5089794;28;20207;-59
2023/04/10 05:59:26;;;;;;;0.00;0.00;;;7.80;99.90;;;;;;5090445;28;20198;-59
2023/04/10 06:01:51;;;;;;;0.03;0.03;;;8.00;99.90;;;;;;5090580;28;20180;-59
2023/04/10 06:04:17;;;;;;;0.00;0.00;;;8.20;99.90;;;;;;5090434;28;20247;-59
2023/04/10 06:06:42;;;;;;;0.00;0.00;;;8.40;99.90;;;;;;5090351;28;20741;-58
2023/04/10 06:09:08;;;;;;;0.00;0.00;;;8.60;99.70;;;;;;5090593;28;20184;-59
2023/04/10 06:11:33;;;;;;;0.00;0.00;;;8.70;99.20;;;;;;5090483;28;20566;-58
2023/04/10 06:14:00;;;;;;;0.00;0.00;;;8.80;98.90;;;;;;5073096;28;20184;-59
2023/04/10 06:16:25;;;;;;;0.10;0.10;;;9.10;98.70;;;;;;5093787;28;20172;-59
2023/04/10 06:18:52;;;;;;;0.20;0.20;;;9.40;98.20;;;;;;5094241;28;20176;-59
2023/04/10 06:21:18;;;;;;;0.00;0.00;;;9.60;97.60;;;;;;5093678;28;20182;-58
2023/04/10 06:23:43;;;;;;;0.00;0.00;;;10.00;96.70;;;;;;5093919;28;20304;-58
2023/04/10 06:26:09;;;;;;;0.08;0.08;;;10.40;96.40;;;;;;5094047;28;20180;-57
2023/04/10 06:28:35;;;;;;;0.00;0.00;;;10.90;95.40;;;;;;5093731;28;20200;-57
2023/04/10 06:31:04;;;;;;;0.00;0.00;;;11.50;94.90;;;;;;5090141;28;20183;-57
2023/04/10 06:33:30;;;;;;;0.00;0.00;;;12.00;93.70;;;;;;5093832;28;20164;-61
2023/04/10 06:35:56;;;;;;;0.00;0.00;;;12.50;92.60;;;;;;5093729;28;20175;-58
2023/04/10 06:38:21;;;;;;;0.03;0.03;;;13.10;91.40;;;;;;5093819;28;20539;-59
2023/04/10 06:40:47;;;;;;;0.10;0.10;;;13.60;89.90;;;;;;5093776;28;20176;-59
2023/04/10 06:43:13;;;;;;;0.22;0.22;;;14.10;86.90;;;;;;5075391;28;20211;-58
2023/04/10 06:45:38;;;;;;;0.00;0.00;;;14.50;84.80;;;;;;5093541;28;20180;-59
2023/04/10 06:48:05;;;;;;;0.00;0.00;;;14.90;82.00;;;;;;5093358;28;20176;-59
2023/04/10 06:50:30;;;;;;;0.00;0.00;;;15.40;78.30;;;;;;5092885;28;20188;-59
2023/04/10 06:52:58;;;;;;;0.00;0.00;;;15.70;76.30;;;;;;5093697;28;20230;-60
2023/04/10 06:55:25;;;;;;;0.00;0.00;;;16.00;74.40;;;;;;5092764;28;20180;-59
2023/04/10 06:57:50;;;;;;;0.10;0.10;;;16.60;72.40;;;;;;5093401;28;20176;-59
2023/04/10 07:00:17;;;;;;;0.30;0.30;;;17.00;70.20;;;;;;5092649;28;20211;-59
2023/04/10 07:02:43;;;;;;;0.00;0.00;;;17.40;68.50;;;;;;5093131;28;20180;-59
2023/04/10 07:05:08;;;;;;;0.00;0.00;;;17.70;66.90;;;;;;5092710;28;20184;-59
2023/04/10 07:07:34;;;;;;;0.00;0.00;;;18.10;65.20;;;;;;5093408;28;20229;-59
2023/04/10 07:09:59;;;;;;;0.00;0.00;;;18.30;63.70;;;;;;5093603;28;20176;-60
2023/04/10 07:12:25;;;;;;;0.00;0.00;;;18.50;63.30;;;;;;5092805;28;20180;-59
2023/04/10 07:14:51;;;;;;;0.00;0.00;;;18.70;61.10;;;;;;5093078;28;20188;-60
2023/04/10 07:17:16;;;;;;;0.00;0.00;;;19.00;58.10;;;;;;5093228;28;20589;-60
2023/04/10 07:19:42;;;;;;;0.00;0.00;;;19.20;57.20;;;;;;5092600;28;20204;-59
2023/04/10 07:22:07;;;;;;;0.00;0.00;;;19.40;55.40;;;;;;5092827;28;20204;-60
2023/04/10 07:24:33;;;;;;;0.00;0.00;;;19.40;54.90;;;;;;5091557;28;20567;-60
2023/04/10 07:27:00;;;;;;;0.00;0.00;;;19.60;54.10;;;;;;5092688;28;20219;-60
2023/04/10 07:29:26;;;;;;;0.03;0.03;;;19.60;52.80;;;;;;5092596;28;20200;-60
2023/04/10 07:31:52;;;;;;;0.00;0.00;;;19.80;52.00;;;;;;5092719;28;20272;-60
2023/04/10 07:34:17;;;;;;;0.00;0.00;;;20.00;52.20;;;;;;5092700;28;20176;-59
2023/04/10 07:36:43;;;;;;;0.00;0.00;;;20.30;50.80;;;;;;5092634;28;20180;-60
2023/04/10 07:39:09;;;;;;;0.00;0.00;;;20.60;49.80;;;;;;5092847;28;20601;-59
2023/04/10 07:41:34;;;;;;;0.00;0.00;;;20.90;54.50;;;;;;5092907;28;20642;-59
2023/04/10 07:44:00;;;;;;;0.00;0.00;;;21.20;48.80;;;;;;5092577;28;20250;-59
2023/04/10 07:46:26;;;;;;;0.00;0.00;;;21.30;48.20;;;;;;5092403;28;20188;-59
2023/04/10 07:48:53;;;;;;;0.00;0.00;;;21.50;47.30;;;;;;5092373;28;20208;-59
2023/04/10 07:51:19;;;;;;;0.00;0.00;;;21.50;46.10;;;;;;5087399;28;20173;-59
2023/04/10 07:53:45;;;;;;;0.00;0.00;;;21.70;46.90;;;;;;5091565;28;20237;-59
2023/04/10 07:56:20;;;;;;;0.00;0.00;;;22.10;46.40;;;;;;5086138;28;20168;-59
2023/04/10 07:58:46;;;;;;;0.00;0.00;;;22.10;45.80;;;;;;5092568;28;20172;-59
2023/04/10 08:01:12;;;;;;;0.00;0.00;;;22.10;45.30;;;;;;5092000;28;20634;-59
2023/04/10 08:03:40;;;;;;;0.00;0.00;;;22.20;44.90;;;;;;5092178;28;20219;-59
2023/04/10 08:06:08;;;;;;;0.00;0.00;;;21.80;44.00;;;;;;5083155;28;20177;-59
2023/04/10 08:08:35;;;;;;;0.00;0.00;;;21.60;44.10;;;;;;5071680;28;20175;-60
2023/04/10 08:11:01;;;;;;;0.00;0.00;;;21.50;44.40;;;;;;5072048;28;20184;-59
2023/04/10 08:13:26;;;;;;;0.00;0.00;;;21.40;45.20;;;;;;5088907;28;20182;-59
2023/04/10 08:15:52;;;;;;;0.00;0.00;;;21.40;44.20;;;;;;5091974;28;20199;-59
2023/04/10 08:18:17;;;;;;;0.00;0.00;;;21.20;44.90;;;;;;5091643;28;20180;-59
2023/04/10 08:20:43;;;;;;;0.00;0.00;;;21.00;44.20;;;;;;5091946;28;20187;-59
2023/04/10 08:23:09;;;;;;;0.00;0.00;;;21.20;44.60;;;;;;5091271;28;20215;-59
2023/04/10 08:25:34;;;;;;;0.00;0.00;;;21.30;43.90;;;;;;5091153;28;20266;-60
2023/04/10 08:28:00;;;;;;;0.00;0.00;;;21.10;43.60;;;;;;5091423;28;20298;-59
2023/04/10 08:30:25;;;;;;;0.00;0.00;;;21.20;45.70;;;;;;5073884;28;20665;-59
2023/04/10 08:32:51;;;;;;;0.00;0.00;;;21.40;44.80;;;;;;5091878;28;20627;-60
2023/04/10 08:35:16;;;;;;;0.00;0.00;;;21.40;43.20;;;;;;5091747;28;20539;-60
2023/04/10 08:37:42;;;;;;;0.00;0.00;;;21.50;44.10;;;;;;5091000;28;20179;-59
2023/04/10 08:40:07;;;;;;;0.15;0.15;;;21.40;43.60;;;;;;5091645;28;20203;-60
2023/04/10 08:42:35;;;;;;;0.00;0.00;;;21.20;42.90;;;;;;5091500;28;20196;-59
2023/04/10 08:45:00;;;;;;;0.00;0.00;;;21.00;43.70;;;;;;5091278;28;20271;-60
2023/04/10 08:47:28;;;;;;;0.00;0.00;;;21.00;44.70;;;;;;5091005;28;20268;-60
2023/04/10 08:49:56;;;;;;;0.10;0.10;;;21.20;44.30;;;;;;5091782;28;20179;-60
2023/04/10 08:52:24;;;;;;;0.00;0.00;;;21.40;44.50;;;;;;5091266;28;20530;-60
2023/04/10 08:54:54;;;;;;;0.00;0.00;;;21.40;43.30;;;;;;5091655;28;20176;-60
2023/04/10 08:57:21;;;;;;;0.00;0.00;;;21.30;43.60;;;;;;5091409;28;20168;-61
2023/04/10 08:59:48;;;;;;;0.00;0.00;;;21.50;44.10;;;;;;5091032;28;20169;-60
2023/04/10 09:02:14;;;;;;;0.00;0.00;;;21.60;43.20;;;;;;5090511;28;20168;-60
2023/04/10 09:04:46;;;;;;;0.00;0.00;;;21.60;43.10;;;;;;5090807;28;20226;-60
2023/04/10 09:07:11;;;;;;;0.00;0.00;;;21.60;43.10;;;;;;5088050;28;20649;-60
2023/04/10 09:09:37;;;;;;;0.10;0.10;;;21.50;43.00;;;;;;5090669;28;20187;-60
2023/04/10 09:12:02;;;;;;;0.00;0.00;;;21.30;43.10;;;;;;5091234;28;20179;-60
2023/04/10 09:14:33;;;;;;;0.00;0.00;;;21.00;43.90;;;;;;5091056;28;20229;-60
2023/04/10 09:17:19;;;;;;;0.00;0.00;;;20.90;43.80;;;;;;5091122;28;20529;-59
2023/04/10 09:19:51;;;;;;;0.00;0.00;;;20.70;44.60;;;;;;5091099;28;20179;-61
2023/04/10 09:22:17;;;;;;;0.00;0.00;;;20.70;44.40;;;;;;5090558;28;20192;-61
2023/04/10 09:24:45;;;;;;;0.00;0.00;;;20.60;44.10;;;;;;5089354;28;20237;-59
2023/04/10 09:27:25;;;;;;;0.00;0.00;;;20.80;44.50;;;;;;5089320;28;20569;-59
2023/04/10 09:29:51;;;;;;;0.00;0.00;;;20.80;44.60;;;;;;5089633;28;20581;-58
2023/04/10 09:32:42;;;;;;;0.00;0.00;;;20.50;43.40;;;;;;5085540;28;20184;-59
2023/04/10 09:35:10;;;;;;;0.00;0.00;;;20.70;45.00;;;;;;5081485;28;20256;-59
2023/04/10 09:37:37;;;;;;;0.00;0.00;;;20.90;44.00;;;;;;5070141;28;20278;-59
2023/04/10 09:40:03;;;;;;;0.00;0.00;;;20.70;43.00;;;;;;5070788;28;20176;-59
2023/04/10 09:42:35;;;;;;;0.00;0.00;;;20.70;43.10;;;;;;5080053;28;20187;-59
2023/04/10 09:45:02;;;;;;;0.00;0.00;;;21.10;43.90;;;;;;5090977;28;20203;-59
2023/04/10 09:47:28;;;;;;;0.00;0.00;;;21.50;44.10;;;;;;5090909;28;20176;-59
2023/04/10 09:49:55;;;;;;;0.00;0.00;;;21.80;43.30;;;;;;5095098;28;20194;-59
2023/04/10 09:52:22;;;;;;;0.00;0.00;;;22.00;44.10;;;;;;5094939;28;20217;-59
2023/04/10 09:54:47;;;;;;;0.00;0.00;;;21.80;43.00;;;;;;5095065;28;20176;-60
2023/04/10 09:57:18;;;;;;;0.17;0.17;;;21.70;42.30;;;;;;5094882;28;20190;-60
2023/04/10 09:59:51;;;;;;;0.08;0.08;;;21.70;42.30;;;;;;5094933;28;20199;-59
2023/04/10 10:02:18;;;;;;;0.00;0.00;;;21.40;41.60;;;;;;5094626;28;20233;-59
2023/04/10 10:04:45;;;;;;;0.10;0.10;;;21.60;42.10;;;;;;5094656;28;20682;-59
2023/04/10 10:07:12;;;;;;;0.10;0.10;;;21.50;41.90;;;;;;5094588;28;20183;-59
2023/04/10 10:09:37;;;;;;;0.10;0.10;;;21.60;41.50;;;;;;5094554;28;20192;-59
2023/04/10 10:12:03;;;;;;;0.00;0.00;;;21.50;42.00;;;;;;5094738;28;20168;-59
2023/04/10 10:14:31;;;;;;;0.00;0.00;;;21.40;41.80;;;;;;5094362;28;20187;-59
2023/04/10 10:17:00;;;;;;;0.00;0.00;;;21.50;43.10;;;;;;5094382;28;20198;-60
2023/04/10 10:20:03;;;;;;;0.00;0.00;;;21.60;41.70;;;;;;5094458;28;20172;-59
2023/04/10 10:22:29;;;;;;;0.00;0.00;;;21.50;40.90;;;;;;5094332;28;20180;-59
2023/04/10 10:24:55;;;;;;;0.00;0.00;;;21.20;41.70;;;;;;5094300;28;20216;-60
2023/04/10 10:27:23;;;;;;;0.00;0.00;;;21.10;42.50;;;;;;5094082;28;20220;-59
2023/04/10 10:29:52;;;;;;;0.03;0.03;;;20.90;41.00;;;;;;5094425;28;20180;-60
2023/04/10 10:32:19;;;;;;;0.00;0.00;;;20.80;41.60;;;;;;5094000;28;20180;-60
2023/04/10 10:34:46;;;;;;;0.00;0.00;;;20.50;41.70;;;;;;5094141;28;20211;-60
2023/04/10 10:37:12;;;;;;;0.00;0.00;;;20.70;42.80;;;;;;5093966;28;20604;-60
2023/04/10 10:40:00;;;;;;;0.00;0.00;;;20.80;41.70;;;;;;5094241;28;20281;-60
2023/04/10 10:42:39;;;;;;;0.00;0.00;;;20.80;41.10;;;;;;5089746;28;20247;-60
2023/04/10 10:45:11;;;;;;;0.00;0.00;;;20.90;41.70;;;;;;5093790;28;20270;-58
2023/04/10 10:47:44;;;;;;;0.00;0.00;;;21.10;42.30;;;;;;5094016;28;20199;-58
2023/04/10 10:50:10;;;;;;;0.00;0.00;;;21.50;42.50;;;;;;5093779;28;20233;-58
2023/04/10 10:52:39;;;;;;;0.00;0.00;;;21.80;41.40;;;;;;5093583;28;20180;-60
2023/04/10 10:55:44;;;;;;;0.00;0.00;;;22.00;39.70;;;;;;5093779;28;20275;-60
2023/04/10 10:58:10;;;;;;;0.10;0.08;;;22.20;40.30;;;;;;5093619;28;20168;-58
2023/04/10 11:00:51;;;;;;;0.00;0.00;;;22.50;40.30;;;;;;5092771;28;20175;-59
2023/04/10 11:03:16;;;;;;;0.00;0.00;;;22.70;41.60;;;;;;5093449;28;20204;-58
2023/04/10 11:05:50;;;;;;;0.00;0.00;;;22.70;39.90;;;;;;5093439;28;20649;-58
2023/04/10 11:08:16;;;;;;;0.00;0.00;;;22.70;39.50;;;;;;5093531;28;20180;-58
2023/04/10 11:11:02;;;;;;;0.10;0.10;;;22.50;39.30;;;;;;5093413;28;20703;-58
2023/04/10 11:13:28;;;;;;;0.00;0.00;;;22.20;40.10;;;;;;5093327;28;20184;-58
2023/04/10 11:15:55;;;;;;;0.00;0.00;;;22.40;40.20;;;;;;5093443;28;20187;-59
2023/04/10 11:18:44;;;;;;;0.00;0.00;;;22.70;41.40;;;;;;5093310;28;20168;-59
2023/04/10 11:21:13;;;;;;;0.00;0.00;;;23.00;39.50;;;;;;5093163;28;20176;-58
2023/04/10 11:23:59;;;;;;;0.00;0.00;;;22.70;39.00;;;;;;5093199;28;20200;-58
2023/04/10 11:26:42;;;;;;;0.08;0.08;;;22.60;38.90;;;;;;5092986;28;20180;-59
2023/04/10 11:29:17;;;;;;;0.00;0.00;;;22.60;39.80;;;;;;5093155;28;20187;-58
2023/04/10 11:31:44;;;;;;;0.00;0.00;;;22.60;39.50;;;;;;5093384;28;20229;-59
2023/04/10 11:34:10;;;;;;;0.00;0.00;;;22.60;38.50;;;;;;5092994;28;20638;-59
2023/04/10 11:36:43;;;;;;;0.00;0.00;;;22.60;38.70;;;;;;5093033;28;20191;-58
2023/04/10 11:39:12;;;;;;;0.00;0.00;;;22.70;38.80;;;;;;5092996;28;20172;-58
2023/04/10 11:41:45;;;;;;;0.00;0.00;;;22.70;38.40;;;;;;5092880;28;20262;-59
2023/04/10 11:44:13;;;;;;;0.05;0.05;;;22.70;40.00;;;;;;5072304;28;20208;-59
2023/04/10 11:46:46;;;;;;;0.00;0.00;;;22.80;38.60;;;;;;5090591;28;20187;-59
2023/04/10 11:49:18;;;;;;;0.00;0.00;;;22.80;37.60;;;;;;5092720;28;20196;-59
2023/04/10 11:51:45;;;;;;;0.00;0.00;;;22.70;38.60;;;;;;5092830;28;20179;-59
2023/04/10 11:54:14;;;;;;;0.00;0.00;;;22.90;38.90;;;;;;5092084;28;20385;-59
2023/04/10 11:56:43;;;;;;;0.00;0.00;;;23.10;38.40;;;;;;5092607;28;20222;-59
2023/04/10 11:59:14;;;;;;;0.00;0.00;;;23.10;38.00;;;;;;5092280;28;20217;-59
2023/04/10 12:01:40;;;;;;;0.00;0.00;;;22.90;37.40;;;;;;5092501;28;20658;-59
2023/04/10 12:04:17;;;;;;;0.00;0.00;;;22.90;38.40;;;;;;5092506;28;20224;-59
2023/04/10 12:06:46;;;;;;;0.00;0.00;;;22.70;36.90;;;;;;5092466;28;20325;-59
2023/04/10 12:09:17;;;;;;;0.00;0.00;;;22.80;37.60;;;;;;5092167;28;20177;-59
2023/04/10 12:12:00;;;;;;;0.00;0.00;;;22.70;37.00;;;;;;5092545;28;20169;-59
2023/04/10 12:14:33;;;;;;;0.03;0.03;;;22.60;36.80;;;;;;5092281;28;20179;-59
2023/04/10 12:17:00;;;;;;;0.00;0.00;;;22.50;36.70;;;;;;5092228;28;20184;-59
2023/04/10 12:19:26;;;;;;;0.00;0.00;;;22.50;37.20;;;;;;5092174;28;20194;-59
2023/04/10 12:21:52;;;;;;;0.00;0.00;;;22.50;37.30;;;;;;5092213;28;20256;-59
2023/04/10 12:24:43;;;;;;;0.00;0.00;;;22.30;36.60;;;;;;5091987;28;20716;-59
2023/04/10 12:27:16;;;;;;;0.10;0.03;;;21.90;36.20;;;;;;5091802;28;20291;-59
2023/04/10 12:29:42;;;;;;;0.00;0.00;;;21.60;37.60;;;;;;5092148;28;20168;-58
2023/04/10 12:32:08;;;;;;;0.00;0.00;;;21.60;38.70;;;;;;5091983;28;20184;-60
2023/04/10 12:34:35;;;;;;;0.00;0.00;;;21.70;37.00;;;;;;5091845;28;20183;-60
2023/04/10 12:37:01;;;;;;;0.00;0.00;;;21.60;37.10;;;;;;5091950;28;20534;-59
2023/04/10 12:39:27;;;;;;;0.00;0.00;;;21.80;37.80;;;;;;5091873;28;20195;-59
2023/04/10 12:41:52;;;;;;;0.00;0.00;;;21.70;37.40;;;;;;5091406;28;20204;-59
2023/04/10 12:44:19;;;;;;;0.00;0.00;;;21.80;37.40;;;;;;5090057;28;20216;-58
2023/04/10 12:46:45;;;;;;;0.00;0.00;;;22.00;37.80;;;;;;5091859;28;20180;-59
2023/04/10 12:49:13;;;;;;;0.00;0.00;;;22.10;36.40;;;;;;5091507;28;20171;-59
2023/04/10 12:51:46;;;;;;;0.00;0.00;;;22.30;36.60;;;;;;5091641;28;20234;-59
2023/04/10 12:54:35;;;;;;;0.00;0.00;;;22.40;36.50;;;;;;5091370;28;20187;-59
2023/04/10 12:57:05;;;;;;;0.00;0.00;;;22.50;36.00;;;;;;5091705;28;20639;-59